Walker, California
Current Conditions -  °F | °C
As of 8:35 PM on Wednesday 22 Oct 2014 (Local Time) from KMEV Reporting Station
Clear Clear  
Wind Chill: 50°   Ceiling: Unl
Heat Index: 50°   Visibility: 10mi
Dew Point: 27°   Wind: 8mph
Humidity: 40%   Direction: 60°ENE
Pressure: 30.11"   Gusts: NA
Location:  38.4678°N, 119.486°W
Report Text: KMEV 230335Z AUTO 06007KT 10SM CLR 10/M03 A3011 RMK AO2
Loading
Personal Weather Stations






























Interactive Weather Map
Tropical Storm Tracking
New forecast layout! Learn more

10-Day Weather Forecast

Advertisements
Track Severe Weather on mobile